sensor_id;sensor_type;location;lat;lon;timestamp;noise_LAeq;noise_LA_min;noise_LA_max;noise_LA01;noise_LA95
50333;Laerm;36239;48.132;-1.210;2023-05-10T00:01:31;45.02;36.20;75.51;;
50333;Laerm;36239;48.132;-1.210;2023-05-10T00:03:57;46.69;36.20;74.21;;
50333;Laerm;36239;48.132;-1.210;2023-05-10T00:06:23;51.43;36.20;81.06;;
50333;Laerm;36239;48.132;-1.210;2023-05-10T00:08:49;56.47;35.66;80.24;;
50333;Laerm;36239;48.132;-1.210;2023-05-10T00:11:15;69.52;36.69;98.82;;
50333;Laerm;36239;48.132;-1.210;2023-05-10T00:13:41;48.63;35.66;76.74;;
50333;Laerm;36239;48.132;-1.210;2023-05-10T00:16:07;42.48;35.04;66.61;;
50333;Laerm;36239;48.132;-1.210;2023-05-10T00:18:33;66.65;36.69;95.91;;
50333;Laerm;36239;48.132;-1.210;2023-05-10T00:20:59;48.21;36.45;72.98;;
50333;Laerm;36239;48.132;-1.210;2023-05-10T00:23:25;48.87;35.66;77.46;;
50333;Laerm;36239;48.132;-1.210;2023-05-10T00:25:51;54.45;34.69;82.51;;
50333;Laerm;36239;48.132;-1.210;2023-05-10T00:28:17;52.95;36.45;82.21;;
50333;Laerm;36239;48.132;-1.210;2023-05-10T00:30:43;53.69;35.36;86.28;;
50333;Laerm;36239;48.132;-1.210;2023-05-10T00:33:09;52.57;35.04;78.77;;
50333;Laerm;36239;48.132;-1.210;2023-05-10T00:35:35;59.43;35.36;81.28;;
50333;Laerm;36239;48.132;-1.210;2023-05-10T00:38:01;53.10;35.66;84.95;;
50333;Laerm;36239;48.132;-1.210;2023-05-10T00:40:27;54.45;35.04;84.53;;
50333;Laerm;36239;48.132;-1.210;2023-05-10T00:42:54;46.37;34.31;69.51;;
50333;Laerm;36239;48.132;-1.210;2023-05-10T00:45:20;55.99;35.36;83.21;;
50333;Laerm;36239;48.132;-1.210;2023-05-10T00:47:46;41.42;33.97;67.31;;
50333;Laerm;36239;48.132;-1.210;2023-05-10T00:50:12;43.68;33.90;70.92;;
50333;Laerm;36239;48.132;-1.210;2023-05-10T00:52:38;60.78;34.31;93.87;;
50333;Laerm;36239;48.132;-1.210;2023-05-10T00:55:04;58.45;34.69;87.69;;
50333;Laerm;36239;48.132;-1.210;2023-05-10T00:57:31;44.30;35.36;72.26;;
50333;Laerm;36239;48.132;-1.210;2023-05-10T00:59:58;44.33;33.90;71.73;;
50333;Laerm;36239;48.132;-1.210;2023-05-10T01:02:24;43.34;35.04;70.90;;
50333;Laerm;36239;48.132;-1.210;2023-05-10T01:04:50;39.91;35.04;52.18;;
50333;Laerm;36239;48.132;-1.210;2023-05-10T01:07:17;42.99;34.31;73.63;;
50333;Laerm;36239;48.132;-1.210;2023-05-10T01:09:43;43.46;34.69;67.02;;
50333;Laerm;36239;48.132;-1.210;2023-05-10T01:12:09;38.46;34.69;50.97;;
50333;Laerm;36239;48.132;-1.210;2023-05-10T01:14:35;53.77;35.66;84.89;;
50333;Laerm;36239;48.132;-1.210;2023-05-10T01:17:02;40.57;33.44;61.76;;
50333;Laerm;36239;48.132;-1.210;2023-05-10T01:19:29;44.57;34.31;70.78;;
50333;Laerm;36239;48.132;-1.210;2023-05-10T01:24:35;43.48;33.90;75.27;;
50333;Laerm;36239;48.132;-1.210;2023-05-10T01:29:56;47.75;33.90;76.33;;
50333;Laerm;36239;48.132;-1.210;2023-05-10T01:32:39;38.49;33.90;52.92;;
50333;Laerm;36239;48.132;-1.210;2023-05-10T01:35:08;42.16;35.36;71.01;;
50333;Laerm;36239;48.132;-1.210;2023-05-10T01:37:39;40.90;33.44;66.21;;
50333;Laerm;36239;48.132;-1.210;2023-05-10T01:42:36;47.62;35.66;73.17;;
50333;Laerm;36239;48.132;-1.210;2023-05-10T01:45:14;42.77;35.36;71.68;;
50333;Laerm;36239;48.132;-1.210;2023-05-10T01:47:44;44.19;35.94;70.72;;
50333;Laerm;36239;48.132;-1.210;2023-05-10T01:50:22;40.00;33.90;57.94;;
50333;Laerm;36239;48.132;-1.210;2023-05-10T01:52:51;46.89;34.69;73.82;;
50333;Laerm;36239;48.132;-1.210;2023-05-10T01:55:21;45.70;33.90;75.04;;
50333;Laerm;36239;48.132;-1.210;2023-05-10T01:57:51;47.93;35.36;75.32;;
50333;Laerm;36239;48.132;-1.210;2023-05-10T02:00:18;41.64;34.31;66.90;;
50333;Laerm;36239;48.132;-1.210;2023-05-10T02:02:45;39.25;34.69;60.81;;
50333;Laerm;36239;48.132;-1.210;2023-05-10T02:05:12;40.10;33.90;65.61;;
50333;Laerm;36239;48.132;-1.210;2023-05-10T02:07:39;41.56;36.20;67.65;;
50333;Laerm;36239;48.132;-1.210;2023-05-10T02:10:06;41.16;36.91;47.59;;
50333;Laerm;36239;48.132;-1.210;2023-05-10T02:12:37;42.83;35.36;67.34;;
50333;Laerm;36239;48.132;-1.210;2023-05-10T02:15:05;40.07;34.69;66.10;;
50333;Laerm;36239;48.132;-1.210;2023-05-10T02:17:32;40.52;35.66;60.23;;
50333;Laerm;36239;48.132;-1.210;2023-05-10T02:19:58;40.02;35.66;56.82;;
50333;Laerm;36239;48.132;-1.210;2023-05-10T02:22:25;43.60;34.69;71.00;;
50333;Laerm;36239;48.132;-1.210;2023-05-10T02:24:52;45.14;35.66;71.43;;
50333;Laerm;36239;48.132;-1.210;2023-05-10T02:27:19;41.38;36.20;65.77;;
50333;Laerm;36239;48.132;-1.210;2023-05-10T02:29:46;39.42;35.36;55.92;;
50333;Laerm;36239;48.132;-1.210;2023-05-10T02:32:12;38.90;35.36;47.59;;
50333;Laerm;36239;48.132;-1.210;2023-05-10T02:34:39;40.07;35.01;57.99;;
50333;Laerm;36239;48.132;-1.210;2023-05-10T02:37:06;45.23;36.45;71.92;;
50333;Laerm;36239;48.132;-1.210;2023-05-10T02:39:32;40.90;36.34;56.35;;
50333;Laerm;36239;48.132;-1.210;2023-05-10T02:41:58;40.27;36.45;59.77;;
50333;Laerm;36239;48.132;-1.210;2023-05-10T02:44:26;42.44;35.66;73.33;;
50333;Laerm;36239;48.132;-1.210;2023-05-10T02:46:54;51.83;35.94;78.93;;
50333;Laerm;36239;48.132;-1.210;2023-05-10T02:49:21;49.09;35.66;77.61;;
50333;Laerm;36239;48.132;-1.210;2023-05-10T02:51:49;42.02;35.66;65.18;;
50333;Laerm;36239;48.132;-1.210;2023-05-10T02:54:20;39.49;35.04;56.14;;
50333;Laerm;36239;48.132;-1.210;2023-05-10T02:56:51;40.59;35.36;62.07;;
50333;Laerm;36239;48.132;-1.210;2023-05-10T02:59:19;39.93;33.44;62.32;;
50333;Laerm;36239;48.132;-1.210;2023-05-10T03:01:45;40.32;34.31;63.22;;
50333;Laerm;36239;48.132;-1.210;2023-05-10T03:04:11;41.43;33.90;68.87;;
50333;Laerm;36239;48.132;-1.210;2023-05-10T03:06:37;43.58;34.69;75.83;;
50333;Laerm;36239;48.132;-1.210;2023-05-10T03:09:03;41.84;35.04;66.38;;
50333;Laerm;36239;48.132;-1.210;2023-05-10T03:16:48;41.98;35.31;66.04;;
50333;Laerm;36239;48.132;-1.210;2023-05-10T03:20:03;39.33;35.66;45.27;;
50333;Laerm;36239;48.132;-1.210;2023-05-10T03:22:08;43.96;35.04;69.75;;
50333;Laerm;36239;48.132;-1.210;2023-05-10T03:24:35;39.79;35.66;60.79;;
50333;Laerm;36239;48.132;-1.210;2023-05-10T03:27:02;40.37;35.94;59.53;;
50333;Laerm;36239;48.132;-1.210;2023-05-10T03:29:30;40.04;35.04;56.10;;
50333;Laerm;36239;48.132;-1.210;2023-05-10T03:31:58;39.81;35.36;48.76;;
50333;Laerm;36239;48.132;-1.210;2023-05-10T03:34:25;41.41;35.36;65.92;;
50333;Laerm;36239;48.132;-1.210;2023-05-10T03:36:51;39.51;35.66;43.85;;
50333;Laerm;36239;48.132;-1.210;2023-05-10T03:39:18;48.99;36.45;79.01;;
50333;Laerm;36239;48.132;-1.210;2023-05-10T03:41:43;43.65;37.70;51.90;;
50333;Laerm;36239;48.132;-1.210;2023-05-10T03:44:09;48.19;37.32;63.75;;
50333;Laerm;36239;48.132;-1.210;2023-05-10T03:46:36;45.41;36.20;59.22;;
50333;Laerm;36239;48.132;-1.210;2023-05-10T03:49:02;46.30;36.45;60.56;;
50333;Laerm;36239;48.132;-1.210;2023-05-10T03:51:28;49.53;37.70;65.19;;
50333;Laerm;36239;48.132;-1.210;2023-05-10T03:53:54;49.01;38.37;63.12;;
50333;Laerm;36239;48.132;-1.210;2023-05-10T03:56:21;47.45;37.88;64.05;;
50333;Laerm;36239;48.132;-1.210;2023-05-10T03:58:47;45.37;37.32;67.36;;
50333;Laerm;36239;48.132;-1.210;2023-05-10T04:01:13;46.42;37.52;67.11;;
50333;Laerm;36239;48.132;-1.210;2023-05-10T04:03:39;44.19;37.52;68.50;;
50333;Laerm;36239;48.132;-1.210;2023-05-10T04:06:05;52.06;38.21;79.23;;
50333;Laerm;36239;48.132;-1.210;2023-05-10T04:08:31;44.32;37.52;66.47;;
50333;Laerm;36239;48.132;-1.210;2023-05-10T04:11:10;44.18;37.88;57.76;;
50333;Laerm;36239;48.132;-1.210;2023-05-10T04:13:36;44.03;38.21;62.79;;
50333;Laerm;36239;48.132;-1.210;2023-05-10T04:16:03;43.87;37.12;54.22;;
50333;Laerm;36239;48.132;-1.210;2023-05-10T04:18:29;42.20;36.20;49.32;;
50333;Laerm;36239;48.132;-1.210;2023-05-10T04:20:55;41.51;38.02;48.55;;
50333;Laerm;36239;48.132;-1.210;2023-05-10T04:23:21;41.14;37.12;53.04;;
50333;Laerm;36239;48.132;-1.210;2023-05-10T04:25:47;41.57;36.69;56.19;;
50333;Laerm;36239;48.132;-1.210;2023-05-10T04:28:13;42.46;37.32;53.40;;
50333;Laerm;36239;48.132;-1.210;2023-05-10T04:30:39;42.80;36.91;58.81;;
50333;Laerm;36239;48.132;-1.210;2023-05-10T04:33:06;41.53;36.91;55.81;;
50333;Laerm;36239;48.132;-1.210;2023-05-10T04:35:32;44.34;36.20;56.20;;
50333;Laerm;36239;48.132;-1.210;2023-05-10T04:37:58;44.19;34.69;68.01;;
50333;Laerm;36239;48.132;-1.210;2023-05-10T04:40:24;42.98;36.91;54.91;;
50333;Laerm;36239;48.132;-1.210;2023-05-10T04:42:50;43.03;36.69;59.55;;
50333;Laerm;36239;48.132;-1.210;2023-05-10T04:45:16;45.57;37.88;57.98;;
50333;Laerm;36239;48.132;-1.210;2023-05-10T04:47:42;43.70;38.81;58.36;;
50333;Laerm;36239;48.132;-1.210;2023-05-10T04:50:08;42.85;38.21;58.32;;
50333;Laerm;36239;48.132;-1.210;2023-05-10T04:52:34;41.32;38.05;52.15;;
50333;Laerm;36239;48.132;-1.210;2023-05-10T04:55:00;42.37;37.52;54.15;;
50333;Laerm;36239;48.132;-1.210;2023-05-10T04:57:26;53.66;38.05;66.57;;
50333;Laerm;36239;48.132;-1.210;2023-05-10T04:59:52;44.23;40.03;54.19;;
50333;Laerm;36239;48.132;-1.210;2023-05-10T05:02:18;41.95;38.05;46.90;;
50333;Laerm;36239;48.132;-1.210;2023-05-10T05:04:44;47.63;38.21;67.42;;
50333;Laerm;36239;48.132;-1.210;2023-05-10T05:07:10;43.26;39.08;54.38;;
50333;Laerm;36239;48.132;-1.210;2023-05-10T05:09:36;43.57;40.33;53.17;;
50333;Laerm;36239;48.132;-1.210;2023-05-10T05:12:02;43.32;40.13;60.53;;
50333;Laerm;36239;48.132;-1.210;2023-05-10T05:14:28;42.96;40.33;52.86;;
50333;Laerm;36239;48.132;-1.210;2023-05-10T05:16:54;42.51;38.95;51.77;;
50333;Laerm;36239;48.132;-1.210;2023-05-10T05:19:21;43.77;39.70;57.62;;
50333;Laerm;36239;48.132;-1.210;2023-05-10T05:21:47;43.54;39.46;55.93;;
50333;Laerm;36239;48.132;-1.210;2023-05-10T05:24:13;43.17;40.13;53.95;;
50333;Laerm;36239;48.132;-1.210;2023-05-10T05:26:39;42.90;38.95;57.53;;
50333;Laerm;36239;48.132;-1.210;2023-05-10T05:29:05;45.40;39.58;74.17;;
50333;Laerm;36239;48.132;-1.210;2023-05-10T05:31:31;43.88;39.70;58.51;;
50333;Laerm;36239;48.132;-1.210;2023-05-10T05:33:57;43.94;40.33;52.50;;
50333;Laerm;36239;48.132;-1.210;2023-05-10T05:36:23;42.87;40.33;57.36;;
50333;Laerm;36239;48.132;-1.210;2023-05-10T05:38:49;43.18;40.23;53.35;;
50333;Laerm;36239;48.132;-1.210;2023-05-10T05:41:15;43.10;39.81;56.68;;
50333;Laerm;36239;48.132;-1.210;2023-05-10T05:43:41;47.38;40.03;72.93;;
50333;Laerm;36239;48.132;-1.210;2023-05-10T05:46:07;49.23;39.46;71.85;;
50333;Laerm;36239;48.132;-1.210;2023-05-10T05:48:33;44.39;39.81;61.07;;
50333;Laerm;36239;48.132;-1.210;2023-05-10T05:50:59;49.02;40.23;80.06;;
50333;Laerm;36239;48.132;-1.210;2023-05-10T05:53:25;43.27;40.98;55.15;;
50333;Laerm;36239;48.132;-1.210;2023-05-10T05:55:51;43.15;41.14;49.40;;
50333;Laerm;36239;48.132;-1.210;2023-05-10T05:58:18;43.11;40.13;55.33;;
50333;Laerm;36239;48.132;-1.210;2023-05-10T06:00:44;47.26;40.33;63.22;;
50333;Laerm;36239;48.132;-1.210;2023-05-10T06:03:10;43.00;39.70;54.75;;
50333;Laerm;36239;48.132;-1.210;2023-05-10T06:05:36;43.07;40.13;56.73;;
50333;Laerm;36239;48.132;-1.210;2023-05-10T06:08:02;48.74;40.80;60.93;;
50333;Laerm;36239;48.132;-1.210;2023-05-10T06:10:28;43.33;38.81;58.21;;
50333;Laerm;36239;48.132;-1.210;2023-05-10T06:12:54;43.85;40.53;57.73;;
50333;Laerm;36239;48.132;-1.210;2023-05-10T06:15:20;43.57;39.92;54.34;;
50333;Laerm;36239;48.132;-1.210;2023-05-10T06:17:46;43.27;39.21;59.18;;
50333;Laerm;36239;48.132;-1.210;2023-05-10T06:20:15;42.90;38.67;60.89;;
50333;Laerm;36239;48.132;-1.210;2023-05-10T06:22:41;44.28;39.34;57.56;;
50333;Laerm;36239;48.132;-1.210;2023-05-10T06:25:08;43.90;39.58;61.36;;
50333;Laerm;36239;48.132;-1.210;2023-05-10T06:27:34;49.47;39.21;69.05;;
50333;Laerm;36239;48.132;-1.210;2023-05-10T06:30:00;44.09;39.58;61.40;;
50333;Laerm;36239;48.132;-1.210;2023-05-10T06:32:26;43.80;40.98;51.33;;
50333;Laerm;36239;48.132;-1.210;2023-05-10T06:34:52;42.98;40.13;57.14;;
50333;Laerm;36239;48.132;-1.210;2023-05-10T06:37:18;43.32;39.92;55.05;;
50333;Laerm;36239;48.132;-1.210;2023-05-10T06:39:44;42.95;39.70;62.29;;
50333;Laerm;36239;48.132;-1.210;2023-05-10T06:42:10;42.36;38.81;56.29;;
50333;Laerm;36239;48.132;-1.210;2023-05-10T06:44:36;44.41;38.37;59.95;;
50333;Laerm;36239;48.132;-1.210;2023-05-10T06:47:02;43.68;39.34;58.68;;
50333;Laerm;36239;48.132;-1.210;2023-05-10T06:49:28;43.94;39.08;61.63;;
50333;Laerm;36239;48.132;-1.210;2023-05-10T06:51:57;47.67;38.67;62.85;;
50333;Laerm;36239;48.132;-1.210;2023-05-10T06:54:23;44.63;38.81;62.55;;
50333;Laerm;36239;48.132;-1.210;2023-05-10T06:56:49;43.86;38.67;60.56;;
50333;Laerm;36239;48.132;-1.210;2023-05-10T06:59:15;43.73;39.34;59.17;;
50333;Laerm;36239;48.132;-1.210;2023-05-10T07:01:42;42.99;39.21;58.20;;
50333;Laerm;36239;48.132;-1.210;2023-05-10T07:04:08;45.07;39.46;65.95;;
50333;Laerm;36239;48.132;-1.210;2023-05-10T07:06:34;43.22;40.43;55.34;;
50333;Laerm;36239;48.132;-1.210;2023-05-10T07:09:00;43.83;39.70;58.50;;
50333;Laerm;36239;48.132;-1.210;2023-05-10T07:11:26;43.67;39.08;59.90;;
50333;Laerm;36239;48.132;-1.210;2023-05-10T07:13:52;46.82;39.21;72.52;;
50333;Laerm;36239;48.132;-1.210;2023-05-10T07:16:18;45.38;39.34;59.49;;
50333;Laerm;36239;48.132;-1.210;2023-05-10T07:18:44;44.03;38.95;59.71;;
50333;Laerm;36239;48.132;-1.210;2023-05-10T07:21:10;43.54;40.33;61.85;;
50333;Laerm;36239;48.132;-1.210;2023-05-10T07:23:36;43.12;38.37;60.99;;
50333;Laerm;36239;48.132;-1.210;2023-05-10T07:26:02;46.43;39.21;62.75;;
50333;Laerm;36239;48.132;-1.210;2023-05-10T07:28:28;45.29;40.89;58.90;;
50333;Laerm;36239;48.132;-1.210;2023-05-10T07:30:54;44.28;40.03;66.31;;
50333;Laerm;36239;48.132;-1.210;2023-05-10T07:33:20;43.21;39.08;59.32;;
50333;Laerm;36239;48.132;-1.210;2023-05-10T07:35:46;42.24;39.08;53.88;;
50333;Laerm;36239;48.132;-1.210;2023-05-10T07:38:12;42.92;38.52;63.59;;
50333;Laerm;36239;48.132;-1.210;2023-05-10T07:40:39;42.56;38.99;54.52;;
50333;Laerm;36239;48.132;-1.210;2023-05-10T07:43:05;43.42;40.62;50.92;;
50333;Laerm;36239;48.132;-1.210;2023-05-10T07:45:31;44.74;41.06;57.50;;
50333;Laerm;36239;48.132;-1.210;2023-05-10T07:47:58;47.80;39.70;66.70;;
50333;Laerm;36239;48.132;-1.210;2023-05-10T07:50:24;46.86;43.29;54.91;;
50333;Laerm;36239;48.132;-1.210;2023-05-10T07:52:50;45.16;40.80;60.05;;
50333;Laerm;36239;48.132;-1.210;2023-05-10T07:55:17;47.34;40.43;65.59;;
50333;Laerm;36239;48.132;-1.210;2023-05-10T07:57:43;48.95;43.90;65.31;;
50333;Laerm;36239;48.132;-1.210;2023-05-10T08:00:12;46.28;40.80;72.91;;
50333;Laerm;36239;48.132;-1.210;2023-05-10T08:02:38;45.04;40.23;65.36;;
50333;Laerm;36239;48.132;-1.210;2023-05-10T08:05:04;47.25;40.89;70.18;;
50333;Laerm;36239;48.132;-1.210;2023-05-10T08:07:31;47.59;40.98;72.02;;
50333;Laerm;36239;48.132;-1.210;2023-05-10T08:09:57;47.26;41.33;67.70;;
50333;Laerm;36239;48.132;-1.210;2023-05-10T08:12:23;56.51;42.41;81.02;;
50333;Laerm;36239;48.132;-1.210;2023-05-10T08:14:49;45.56;40.53;66.60;;
50333;Laerm;36239;48.132;-1.210;2023-05-10T08:17:15;43.93;41.06;55.35;;
50333;Laerm;36239;48.132;-1.210;2023-05-10T08:19:41;45.08;39.92;65.87;;
50333;Laerm;36239;48.132;-1.210;2023-05-10T08:22:07;46.74;42.41;65.40;;
50333;Laerm;36239;48.132;-1.210;2023-05-10T08:24:33;45.11;41.30;61.28;;
50333;Laerm;36239;48.132;-1.210;2023-05-10T08:27:07;48.65;40.03;72.61;;
50333;Laerm;36239;48.132;-1.210;2023-05-10T08:29:33;49.39;40.13;70.50;;
50333;Laerm;36239;48.132;-1.210;2023-05-10T08:31:59;47.74;39.92;75.84;;
50333;Laerm;36239;48.132;-1.210;2023-05-10T08:34:26;49.69;39.34;69.61;;
50333;Laerm;36239;48.132;-1.210;2023-05-10T08:36:52;47.56;41.30;65.57;;
50333;Laerm;36239;48.132;-1.210;2023-05-10T08:39:18;48.50;42.53;71.45;;
50333;Laerm;36239;48.132;-1.210;2023-05-10T08:41:45;49.55;43.46;72.31;;
50333;Laerm;36239;48.132;-1.210;2023-05-10T08:44:12;54.27;42.35;78.92;;
50333;Laerm;36239;48.132;-1.210;2023-05-10T08:46:38;53.51;42.53;77.50;;
50333;Laerm;36239;48.132;-1.210;2023-05-10T08:49:09;45.04;41.89;66.00;;
50333;Laerm;36239;48.132;-1.210;2023-05-10T08:51:40;48.55;41.82;79.44;;
50333;Laerm;36239;48.132;-1.210;2023-05-10T08:54:06;43.88;40.89;56.52;;
50333;Laerm;36239;48.132;-1.210;2023-05-10T08:56:32;45.18;39.46;65.44;;
50333;Laerm;36239;48.132;-1.210;2023-05-10T08:58:58;48.18;39.21;65.78;;
50333;Laerm;36239;48.132;-1.210;2023-05-10T09:01:24;46.32;39.34;62.31;;
50333;Laerm;36239;48.132;-1.210;2023-05-10T09:03:51;47.45;39.89;75.26;;
50333;Laerm;36239;48.132;-1.210;2023-05-10T09:06:17;44.20;38.21;67.69;;
50333;Laerm;36239;48.132;-1.210;2023-05-10T09:08:43;57.31;39.81;85.05;;
50333;Laerm;36239;48.132;-1.210;2023-05-10T09:11:11;47.09;36.69;69.75;;
50333;Laerm;36239;48.132;-1.210;2023-05-10T09:13:37;56.56;40.23;81.09;;
50333;Laerm;36239;48.132;-1.210;2023-05-10T09:16:03;47.28;39.46;74.89;;
50333;Laerm;36239;48.132;-1.210;2023-05-10T09:18:30;43.62;39.34;55.42;;
50333;Laerm;36239;48.132;-1.210;2023-05-10T09:20:56;43.43;39.08;63.57;;
50333;Laerm;36239;48.132;-1.210;2023-05-10T09:23:22;43.25;38.95;58.58;;
50333;Laerm;36239;48.132;-1.210;2023-05-10T09:26:01;44.63;39.81;65.69;;
50333;Laerm;36239;48.132;-1.210;2023-05-10T09:28:31;47.95;39.92;77.15;;
50333;Laerm;36239;48.132;-1.210;2023-05-10T09:30:57;49.81;40.23;69.73;;
50333;Laerm;36239;48.132;-1.210;2023-05-10T09:33:23;45.53;40.89;65.38;;
50333;Laerm;36239;48.132;-1.210;2023-05-10T09:35:49;56.44;39.46;84.28;;
50333;Laerm;36239;48.132;-1.210;2023-05-10T09:38:17;46.32;39.81;67.58;;
50333;Laerm;36239;48.132;-1.210;2023-05-10T09:40:44;46.05;39.58;63.24;;
50333;Laerm;36239;48.132;-1.210;2023-05-10T09:43:20;45.26;39.58;62.41;;
50333;Laerm;36239;48.132;-1.210;2023-05-10T09:45:46;50.22;39.92;63.76;;
50333;Laerm;36239;48.132;-1.210;2023-05-10T09:48:13;49.23;41.19;71.90;;
50333;Laerm;36239;48.132;-1.210;2023-05-10T09:50:39;52.62;43.94;72.67;;
50333;Laerm;36239;48.132;-1.210;2023-05-10T09:53:06;46.58;41.38;69.99;;
50333;Laerm;36239;48.132;-1.210;2023-05-10T09:58:04;47.89;42.59;65.58;;
50333;Laerm;36239;48.132;-1.210;2023-05-10T10:00:36;47.51;43.72;60.34;;
50333;Laerm;36239;48.132;-1.210;2023-05-10T10:03:02;47.38;40.71;72.75;;
50333;Laerm;36239;48.132;-1.210;2023-05-10T10:05:29;52.07;39.70;75.26;;
50333;Laerm;36239;48.132;-1.210;2023-05-10T10:07:56;44.12;38.95;68.20;;
50333;Laerm;36239;48.132;-1.210;2023-05-10T10:10:23;42.71;39.34;66.50;;
50333;Laerm;36239;48.132;-1.210;2023-05-10T10:12:50;43.37;39.58;59.27;;
50333;Laerm;36239;48.132;-1.210;2023-05-10T10:15:16;49.98;40.08;70.66;;
50333;Laerm;36239;48.132;-1.210;2023-05-10T10:17:42;47.36;37.88;65.04;;
50333;Laerm;36239;48.132;-1.210;2023-05-10T10:20:09;43.04;38.21;67.00;;
50333;Laerm;36239;48.132;-1.210;2023-05-10T10:22:36;43.09;38.67;62.47;;
50333;Laerm;36239;48.132;-1.210;2023-05-10T10:25:02;42.80;39.34;60.22;;
50333;Laerm;36239;48.132;-1.210;2023-05-10T10:30:16;42.90;36.91;66.62;;
50333;Laerm;36239;48.132;-1.210;2023-05-10T10:35:11;51.23;44.23;63.98;;
50333;Laerm;36239;48.132;-1.210;2023-05-10T10:37:40;51.99;43.46;69.00;;
50333;Laerm;36239;48.132;-1.210;2023-05-10T10:40:23;46.02;39.21;68.34;;
50333;Laerm;36239;48.132;-1.210;2023-05-10T10:42:50;45.67;39.08;61.74;;
50333;Laerm;36239;48.132;-1.210;2023-05-10T10:45:16;49.19;40.71;60.46;;
50333;Laerm;36239;48.132;-1.210;2023-05-10T10:47:42;56.60;46.25;71.19;;
50333;Laerm;36239;48.132;-1.210;2023-05-10T10:50:09;53.35;42.59;71.80;;
50333;Laerm;36239;48.132;-1.210;2023-05-10T10:52:36;45.20;40.71;63.33;;
50333;Laerm;36239;48.132;-1.210;2023-05-10T10:55:10;49.50;43.39;58.84;;
50333;Laerm;36239;48.132;-1.210;2023-05-10T11:02:47;59.71;54.90;68.69;;
50333;Laerm;36239;48.132;-1.210;2023-05-10T11:07:55;58.22;43.86;82.54;;
50333;Laerm;36239;48.132;-1.210;2023-05-10T11:10:21;47.62;39.81;59.14;;
50333;Laerm;36239;48.132;-1.210;2023-05-10T11:12:51;43.44;38.52;56.91;;
50333;Laerm;36239;48.132;-1.210;2023-05-10T11:15:17;45.39;38.37;57.72;;
50333;Laerm;36239;48.132;-1.210;2023-05-10T11:17:43;50.80;38.52;75.06;;
50333;Laerm;36239;48.132;-1.210;2023-05-10T11:20:13;53.90;38.18;82.81;;
50333;Laerm;36239;48.132;-1.210;2023-05-10T11:22:52;44.03;38.32;56.60;;
50333;Laerm;36239;48.132;-1.210;2023-05-10T11:25:19;46.74;38.95;63.59;;
50333;Laerm;36239;48.132;-1.210;2023-05-10T11:27:46;44.36;41.14;56.14;;
50333;Laerm;36239;48.132;-1.210;2023-05-10T11:30:13;47.30;39.81;61.18;;
50333;Laerm;36239;48.132;-1.210;2023-05-10T11:32:40;45.29;38.60;61.02;;
50333;Laerm;36239;48.132;-1.210;2023-05-10T11:35:09;45.76;38.52;59.78;;
50333;Laerm;36239;48.132;-1.210;2023-05-10T11:37:35;44.64;39.34;66.15;;
50333;Laerm;36239;48.132;-1.210;2023-05-10T11:40:01;43.60;39.81;57.65;;
50333;Laerm;36239;48.132;-1.210;2023-05-10T11:42:28;51.19;37.32;74.85;;
50333;Laerm;36239;48.132;-1.210;2023-05-10T11:44:55;43.94;38.21;63.24;;
50333;Laerm;36239;48.132;-1.210;2023-05-10T11:47:21;46.00;38.52;66.30;;
50333;Laerm;36239;48.132;-1.210;2023-05-10T11:49:47;48.68;38.99;77.64;;
50333;Laerm;36239;48.132;-1.210;2023-05-10T11:52:13;50.43;38.95;80.52;;
50333;Laerm;36239;48.132;-1.210;2023-05-10T11:54:55;50.04;37.88;71.26;;
50333;Laerm;36239;48.132;-1.210;2023-05-10T11:57:25;52.23;38.95;74.41;;
50333;Laerm;36239;48.132;-1.210;2023-05-10T11:59:54;56.46;38.37;83.84;;
50333;Laerm;36239;48.132;-1.210;2023-05-10T12:02:21;45.45;39.08;61.29;;
50333;Laerm;36239;48.132;-1.210;2023-05-10T12:04:47;58.90;46.59;80.56;;
50333;Laerm;36239;48.132;-1.210;2023-05-10T12:07:14;49.02;41.30;71.30;;
50333;Laerm;36239;48.132;-1.210;2023-05-10T12:09:43;46.91;40.23;60.87;;
50333;Laerm;36239;48.132;-1.210;2023-05-10T12:12:15;51.30;42.88;63.44;;
50333;Laerm;36239;48.132;-1.210;2023-05-10T12:14:41;48.66;43.77;66.10;;
50333;Laerm;36239;48.132;-1.210;2023-05-10T12:17:11;48.88;41.82;65.23;;
50333;Laerm;36239;48.132;-1.210;2023-05-10T12:19:37;51.77;41.46;74.32;;
50333;Laerm;36239;48.132;-1.210;2023-05-10T12:22:04;51.56;43.09;69.20;;
50333;Laerm;36239;48.132;-1.210;2023-05-10T12:24:34;47.44;39.70;61.76;;
50333;Laerm;36239;48.132;-1.210;2023-05-10T12:27:04;46.83;39.21;62.94;;
50333;Laerm;36239;48.132;-1.210;2023-05-10T12:29:30;47.64;39.34;66.61;;
50333;Laerm;36239;48.132;-1.210;2023-05-10T12:31:59;46.59;39.92;70.37;;
50333;Laerm;36239;48.132;-1.210;2023-05-10T12:34:32;42.11;38.21;54.55;;
50333;Laerm;36239;48.132;-1.210;2023-05-10T12:36:58;46.55;37.88;64.10;;
50333;Laerm;36239;48.132;-1.210;2023-05-10T12:39:24;53.65;38.05;81.66;;
50333;Laerm;36239;48.132;-1.210;2023-05-10T12:41:51;49.77;37.88;69.57;;
50333;Laerm;36239;48.132;-1.210;2023-05-10T12:44:17;49.30;38.52;72.29;;
50333;Laerm;36239;48.132;-1.210;2023-05-10T12:46:43;51.84;37.70;68.41;;
50333;Laerm;36239;48.132;-1.210;2023-05-10T12:49:09;49.45;37.88;66.21;;
50333;Laerm;36239;48.132;-1.210;2023-05-10T12:51:36;46.21;37.88;74.76;;
50333;Laerm;36239;48.132;-1.210;2023-05-10T12:54:02;43.32;37.88;59.33;;
50333;Laerm;36239;48.132;-1.210;2023-05-10T12:56:28;50.84;40.62;74.88;;
50333;Laerm;36239;48.132;-1.210;2023-05-10T12:58:54;53.90;41.22;76.93;;
50333;Laerm;36239;48.132;-1.210;2023-05-10T13:01:20;55.79;48.10;77.74;;
50333;Laerm;36239;48.132;-1.210;2023-05-10T13:03:46;59.20;49.55;67.06;;
50333;Laerm;36239;48.132;-1.210;2023-05-10T13:06:13;62.13;44.23;77.93;;
50333;Laerm;36239;48.132;-1.210;2023-05-10T13:08:39;61.55;47.32;71.06;;
50333;Laerm;36239;48.132;-1.210;2023-05-10T13:11:05;57.78;45.36;69.53;;
50333;Laerm;36239;48.132;-1.210;2023-05-10T13:13:31;49.03;43.19;56.50;;
50333;Laerm;36239;48.132;-1.210;2023-05-10T13:15:57;45.12;41.46;60.63;;
50333;Laerm;36239;48.132;-1.210;2023-05-10T13:18:23;56.71;41.30;81.32;;
50333;Laerm;36239;48.132;-1.210;2023-05-10T13:20:50;44.82;40.23;58.57;;
50333;Laerm;36239;48.132;-1.210;2023-05-10T13:23:16;47.17;40.43;73.42;;
50333;Laerm;36239;48.132;-1.210;2023-05-10T13:25:42;45.78;41.30;64.50;;
50333;Laerm;36239;48.132;-1.210;2023-05-10T13:28:08;52.48;41.46;69.61;;
50333;Laerm;36239;48.132;-1.210;2023-05-10T13:30:34;54.29;50.07;62.54;;
50333;Laerm;36239;48.132;-1.210;2023-05-10T13:33:00;51.42;41.75;61.56;;
50333;Laerm;36239;48.132;-1.210;2023-05-10T13:35:25;45.76;40.43;63.01;;
50333;Laerm;36239;48.132;-1.210;2023-05-10T13:37:51;48.91;40.80;74.20;;
50333;Laerm;36239;48.132;-1.210;2023-05-10T13:40:19;53.47;44.47;72.05;;
50333;Laerm;36239;48.132;-1.210;2023-05-10T13:42:45;54.87;45.66;74.85;;
50333;Laerm;36239;48.132;-1.210;2023-05-10T13:45:12;47.28;41.30;73.59;;
50333;Laerm;36239;48.132;-1.210;2023-05-10T13:47:38;51.67;39.58;66.30;;
50333;Laerm;36239;48.132;-1.210;2023-05-10T13:50:05;45.81;39.81;63.77;;
50333;Laerm;36239;48.132;-1.210;2023-05-10T13:52:31;46.13;38.37;59.13;;
50333;Laerm;36239;48.132;-1.210;2023-05-10T13:54:57;50.58;38.67;64.03;;
50333;Laerm;36239;48.132;-1.210;2023-05-10T13:57:23;53.50;37.70;68.47;;
50333;Laerm;36239;48.132;-1.210;2023-05-10T13:59:50;47.22;41.61;64.86;;